Grand Coulee, WA

10:19 PM PDT on September 30, 2014 (GMT -0700)
3 miles ESE of Grand Coulee Dam, in Lincoln County, WA | Change Station
CLOSE
Current Station
Personal Weather Station
Location: Grand Coulee, WA
Elevation: 1575 ft
Nearby Weather Stations

Elev 1575 ft 47.92 °N, 118.94 °W | Updated 9 minutes ago

Clear
Clear
54.7 °F
Feels Like 54.7 °F
N
0.0
Wind Variable Wind from WSW
Gusts 1.0 mph

Today
High -- | Low -- °F
--% Chance of Precip.
Yesterday
High -- | Low -- °F
Precip. -- in
6:53 AM 6:37 PM
Waxing Crescent, 44% visible
Pressure 30.04 in
Visibility 10.0 miles
Clouds Clear
Dew Point 35 °F
Humidity 48%
Rainfall 0.00 in
Snow Depth 1 in , 0 in , 2 in
UV 0 out of 12
Pollen 4.90 out of 12
Air Quality Not available.
Flu Activity Not available.
METAR KOMK 010453Z AUTO 30008KT 10SM CLR 09/03 A3003 RMK AO2 SLP170 T00890033

More Conditions Fewer Conditions

Pressure 30.04 in
Visibility 10.0 miles
Clouds Clear
Dew Point 35 °F
Humidity 48%
Rainfall 0.00 in
Snow Depth 1 in , 0 in , 2 in
UV 0 out of 12
Pollen 4.90 out of 12
Air Quality Not available.
Flu Activity Not available.
METAR KOMK 010453Z AUTO 30008KT 10SM CLR 09/03 A3003 RMK AO2 SLP170 T00890033

More Conditions Fewer Conditions

10-Day Weather Forecast

Almanac

Astronomy

Sep. 30, 2014 Rise Set
Actual Time 6:53 AM PDT 6:37 PM PDT
Civil Twilight 6:23 AM PDT 7:07 PM PDT
Nautical Twilight 5:46 AM PDT 7:43 PM PDT
Astronomical Twilight 5:10 AM PDT 8:20 PM PDT
Moon 1:26 PM PDT (9/30) 10:52 PM PDT (9/30)
Length of Visible Light 12h 44m
Length of Day
11h 43m
Tomorrow will be 3m 27s shorter.
Waxing Crescent, 44% of the Moon is Illuminated
Oct 1
Waxing Crescent
Oct 1
First Quarter
Oct 8
Full
Oct 15
Last Quarter
Oct 23
New

Yesterday's Extremes

State Highs State Lows

Community

WunderPhotos

Upload Photos

1,757,851 photos uploaded!

Nearby

Snow Depth

Station Depth Elevation
Stevens Pass 0 in 4070 ft
Spruce Springs 1 in 5700 ft
Sheep Canyon 0 in 4030 ft
Quartz Peak 2 in 4700 ft
Alpine Meadows 0 in 3500 ft

Earthquake Activity

City Distance Mag. Time & Date
No recent earthquake activity has been reported nearby.
Minimum magnitude displayed is 2.5.

Coastal Water Temperatures

Place Temperature
No Stations Reporting

Nearby Weather Stations